Search for airport 
image banner adimage banner ad
image banner ad

DAUE - El Golea

Located in El Golea, Algeria

ICAO - DAUE, IATA - ELG

Data provided by Airmate  

General information

Coordinates: N30°34'8" E2°51'53"
Elevation is 1305 feet MSL.
 
View others Airports in Ghardaïa Province

Operational data

Open for public use
Current time UTC:
Current local time:
Weather
METAR: DAUE 290900Z 07006KT CAVOK 18/01 Q1026
View NOTAMs / SUP AIP / TFR affecting this airport [VIEW]
Communications frequencies: [VIEW]

Runways:

RWY identifierQFULength (ft)Width (ft)SurfaceLDA (ft)
10102°5906148ASP
28282°5906148
18180°11319148
36360°11319148

Airport contact information

Address: El Golea Algeria

Satellite view of DAUE